sensor_id;sensor_type;location;lat;lon;timestamp;P1;durP1;ratioP1;P2;durP2;ratioP2
55082;SDS011;40978;52.850;6.506;2022-12-18T00:00:04;93.75;;;38.35;;
55082;SDS011;40978;52.850;6.506;2022-12-18T00:02:31;91.78;;;37.10;;
55082;SDS011;40978;52.850;6.506;2022-12-18T00:04:57;89.35;;;35.28;;
55082;SDS011;40978;52.850;6.506;2022-12-18T00:07:22;93.15;;;39.60;;
55082;SDS011;40978;52.850;6.506;2022-12-18T00:09:48;96.35;;;39.75;;
55082;SDS011;40978;52.850;6.506;2022-12-18T00:12:14;91.47;;;40.15;;
55082;SDS011;40978;52.850;6.506;2022-12-18T00:14:39;91.05;;;38.45;;
55082;SDS011;40978;52.850;6.506;2022-12-18T00:17:05;82.20;;;37.40;;
55082;SDS011;40978;52.850;6.506;2022-12-18T00:19:31;86.45;;;35.95;;
55082;SDS011;40978;52.850;6.506;2022-12-18T00:21:56;83.65;;;34.90;;
55082;SDS011;40978;52.850;6.506;2022-12-18T00:24:23;83.63;;;36.70;;
55082;SDS011;40978;52.850;6.506;2022-12-18T00:26:48;92.38;;;38.22;;
55082;SDS011;40978;52.850;6.506;2022-12-18T00:29:14;78.22;;;36.53;;
55082;SDS011;40978;52.850;6.506;2022-12-18T00:31:40;85.65;;;36.25;;
55082;SDS011;40978;52.850;6.506;2022-12-18T00:34:08;84.25;;;35.97;;
55082;SDS011;40978;52.850;6.506;2022-12-18T00:36:36;87.93;;;37.55;;
55082;SDS011;40978;52.850;6.506;2022-12-18T00:39:03;84.38;;;37.33;;
55082;SDS011;40978;52.850;6.506;2022-12-18T00:41:30;82.95;;;38.63;;
55082;SDS011;40978;52.850;6.506;2022-12-18T00:44:15;86.95;;;35.47;;
55082;SDS011;40978;52.850;6.506;2022-12-18T00:46:42;88.72;;;37.67;;
55082;SDS011;40978;52.850;6.506;2022-12-18T00:49:08;79.32;;;36.80;;
55082;SDS011;40978;52.850;6.506;2022-12-18T00:51:34;89.65;;;38.70;;
55082;SDS011;40978;52.850;6.506;2022-12-18T00:54:00;83.82;;;36.05;;
55082;SDS011;40978;52.850;6.506;2022-12-18T00:56:26;82.63;;;36.97;;
55082;SDS011;40978;52.850;6.506;2022-12-18T00:58:52;87.60;;;38.58;;
55082;SDS011;40978;52.850;6.506;2022-12-18T01:01:18;83.80;;;36.83;;
55082;SDS011;40978;52.850;6.506;2022-12-18T01:03:43;87.05;;;37.92;;
55082;SDS011;40978;52.850;6.506;2022-12-18T01:06:11;81.68;;;37.45;;
55082;SDS011;40978;52.850;6.506;2022-12-18T01:08:39;84.55;;;37.47;;
55082;SDS011;40978;52.850;6.506;2022-12-18T01:11:11;82.93;;;34.63;;
55082;SDS011;40978;52.850;6.506;2022-12-18T01:13:41;82.10;;;36.60;;
55082;SDS011;40978;52.850;6.506;2022-12-18T01:16:07;91.15;;;38.92;;
55082;SDS011;40978;52.850;6.506;2022-12-18T01:18:35;85.00;;;39.80;;
55082;SDS011;40978;52.850;6.506;2022-12-18T01:21:05;83.45;;;38.10;;
55082;SDS011;40978;52.850;6.506;2022-12-18T01:23:34;85.05;;;38.72;;
55082;SDS011;40978;52.850;6.506;2022-12-18T01:26:04;86.78;;;37.70;;
55082;SDS011;40978;52.850;6.506;2022-12-18T01:28:31;89.30;;;39.35;;
55082;SDS011;40978;52.850;6.506;2022-12-18T01:30:57;92.82;;;39.20;;
55082;SDS011;40978;52.850;6.506;2022-12-18T01:33:22;97.63;;;40.45;;
55082;SDS011;40978;52.850;6.506;2022-12-18T01:35:48;95.28;;;39.70;;
55082;SDS011;40978;52.850;6.506;2022-12-18T01:38:14;95.30;;;39.90;;
55082;SDS011;40978;52.850;6.506;2022-12-18T01:40:40;93.22;;;40.92;;
55082;SDS011;40978;52.850;6.506;2022-12-18T01:43:08;99.45;;;41.45;;
55082;SDS011;40978;52.850;6.506;2022-12-18T01:45:34;95.18;;;40.65;;
55082;SDS011;40978;52.850;6.506;2022-12-18T01:48:03;99.50;;;43.65;;
55082;SDS011;40978;52.850;6.506;2022-12-18T01:53:00;104.68;;;43.08;;
55082;SDS011;40978;52.850;6.506;2022-12-18T01:55:31;107.20;;;43.58;;
55082;SDS011;40978;52.850;6.506;2022-12-18T02:00:28;98.57;;;40.85;;
55082;SDS011;40978;52.850;6.506;2022-12-18T02:02:54;89.60;;;41.13;;
55082;SDS011;40978;52.850;6.506;2022-12-18T02:10:57;88.00;;;37.83;;
55082;SDS011;40978;52.850;6.506;2022-12-18T02:16:12;87.53;;;38.42;;
55082;SDS011;40978;52.850;6.506;2022-12-18T02:18:50;88.05;;;37.70;;
55082;SDS011;40978;52.850;6.506;2022-12-18T02:21:45;86.07;;;38.53;;
55082;SDS011;40978;52.850;6.506;2022-12-18T02:27:48;89.50;;;39.45;;
55082;SDS011;40978;52.850;6.506;2022-12-18T02:30:17;84.45;;;37.10;;
55082;SDS011;40978;52.850;6.506;2022-12-18T02:32:46;83.57;;;36.47;;
55082;SDS011;40978;52.850;6.506;2022-12-18T02:35:22;88.45;;;38.15;;
55082;SDS011;40978;52.850;6.506;2022-12-18T02:37:50;89.30;;;38.38;;
55082;SDS011;40978;52.850;6.506;2022-12-18T02:40:16;82.53;;;36.70;;
55082;SDS011;40978;52.850;6.506;2022-12-18T02:42:44;84.88;;;36.85;;
55082;SDS011;40978;52.850;6.506;2022-12-18T02:45:10;89.75;;;39.33;;
55082;SDS011;40978;52.850;6.506;2022-12-18T02:47:40;92.47;;;37.97;;
55082;SDS011;40978;52.850;6.506;2022-12-18T03:01:24;86.20;;;35.60;;
55082;SDS011;40978;52.850;6.506;2022-12-18T03:04:01;86.82;;;37.78;;
55082;SDS011;40978;52.850;6.506;2022-12-18T03:06:35;88.88;;;37.30;;
55082;SDS011;40978;52.850;6.506;2022-12-18T03:09:09;88.25;;;36.33;;
55082;SDS011;40978;52.850;6.506;2022-12-18T03:11:42;83.45;;;37.05;;
55082;SDS011;40978;52.850;6.506;2022-12-18T03:14:30;81.85;;;37.47;;
55082;SDS011;40978;52.850;6.506;2022-12-18T03:17:00;84.97;;;35.60;;
55082;SDS011;40978;52.850;6.506;2022-12-18T03:19:31;82.88;;;34.45;;
55082;SDS011;40978;52.850;6.506;2022-12-18T03:21:58;79.10;;;35.08;;
55082;SDS011;40978;52.850;6.506;2022-12-18T03:24:29;82.13;;;36.50;;
55082;SDS011;40978;52.850;6.506;2022-12-18T03:26:59;83.85;;;36.55;;
55082;SDS011;40978;52.850;6.506;2022-12-18T03:32:20;78.38;;;34.88;;
55082;SDS011;40978;52.850;6.506;2022-12-18T03:34:50;82.00;;;35.03;;
55082;SDS011;40978;52.850;6.506;2022-12-18T03:37:18;86.47;;;35.08;;
55082;SDS011;40978;52.850;6.506;2022-12-18T03:39:44;84.10;;;36.75;;
55082;SDS011;40978;52.850;6.506;2022-12-18T03:42:32;83.90;;;36.53;;
55082;SDS011;40978;52.850;6.506;2022-12-18T03:45:02;86.97;;;35.92;;
55082;SDS011;40978;52.850;6.506;2022-12-18T03:50:33;79.18;;;33.75;;
55082;SDS011;40978;52.850;6.506;2022-12-18T03:58:16;73.55;;;32.97;;
55082;SDS011;40978;52.850;6.506;2022-12-18T04:00:45;78.53;;;33.92;;
55082;SDS011;40978;52.850;6.506;2022-12-18T04:03:14;82.40;;;35.10;;
55082;SDS011;40978;52.850;6.506;2022-12-18T04:05:43;83.88;;;35.97;;
55082;SDS011;40978;52.850;6.506;2022-12-18T04:08:10;77.32;;;32.53;;
55082;SDS011;40978;52.850;6.506;2022-12-18T04:10:37;79.40;;;34.92;;
55082;SDS011;40978;52.850;6.506;2022-12-18T04:13:02;81.18;;;34.90;;
55082;SDS011;40978;52.850;6.506;2022-12-18T04:15:28;77.10;;;33.40;;
55082;SDS011;40978;52.850;6.506;2022-12-18T04:17:54;84.72;;;34.80;;
55082;SDS011;40978;52.850;6.506;2022-12-18T04:20:19;79.10;;;33.88;;
55082;SDS011;40978;52.850;6.506;2022-12-18T04:22:45;82.70;;;34.72;;
55082;SDS011;40978;52.850;6.506;2022-12-18T04:25:12;79.07;;;33.63;;
55082;SDS011;40978;52.850;6.506;2022-12-18T04:27:38;74.03;;;33.00;;
55082;SDS011;40978;52.850;6.506;2022-12-18T04:30:04;72.20;;;31.42;;
55082;SDS011;40978;52.850;6.506;2022-12-18T04:32:30;70.72;;;30.95;;
55082;SDS011;40978;52.850;6.506;2022-12-18T04:34:55;71.15;;;32.10;;
55082;SDS011;40978;52.850;6.506;2022-12-18T04:37:21;72.45;;;33.60;;
55082;SDS011;40978;52.850;6.506;2022-12-18T04:39:47;72.32;;;30.73;;
55082;SDS011;40978;52.850;6.506;2022-12-18T04:42:13;69.78;;;31.33;;
55082;SDS011;40978;52.850;6.506;2022-12-18T04:44:38;70.05;;;31.15;;
55082;SDS011;40978;52.850;6.506;2022-12-18T04:47:04;64.57;;;30.02;;
55082;SDS011;40978;52.850;6.506;2022-12-18T04:49:30;61.55;;;29.13;;
55082;SDS011;40978;52.850;6.506;2022-12-18T04:51:55;67.82;;;30.23;;
55082;SDS011;40978;52.850;6.506;2022-12-18T04:54:21;63.05;;;27.38;;
55082;SDS011;40978;52.850;6.506;2022-12-18T04:56:47;61.55;;;29.77;;
55082;SDS011;40978;52.850;6.506;2022-12-18T04:59:12;66.45;;;28.95;;
55082;SDS011;40978;52.850;6.506;2022-12-18T05:01:38;64.65;;;29.25;;
55082;SDS011;40978;52.850;6.506;2022-12-18T05:04:04;63.47;;;29.13;;
55082;SDS011;40978;52.850;6.506;2022-12-18T05:06:30;59.80;;;26.95;;
55082;SDS011;40978;52.850;6.506;2022-12-18T05:08:55;62.00;;;28.45;;
55082;SDS011;40978;52.850;6.506;2022-12-18T05:11:21;50.83;;;26.17;;
55082;SDS011;40978;52.850;6.506;2022-12-18T05:13:47;49.78;;;26.52;;
55082;SDS011;40978;52.850;6.506;2022-12-18T05:16:13;56.42;;;27.00;;
55082;SDS011;40978;52.850;6.506;2022-12-18T05:18:39;49.55;;;23.92;;
55082;SDS011;40978;52.850;6.506;2022-12-18T05:21:05;53.05;;;25.67;;
55082;SDS011;40978;52.850;6.506;2022-12-18T05:23:31;51.15;;;25.67;;
55082;SDS011;40978;52.850;6.506;2022-12-18T05:26:00;52.03;;;26.00;;
55082;SDS011;40978;52.850;6.506;2022-12-18T05:28:28;56.63;;;27.42;;
55082;SDS011;40978;52.850;6.506;2022-12-18T05:30:56;52.88;;;25.48;;
55082;SDS011;40978;52.850;6.506;2022-12-18T05:33:25;51.20;;;25.70;;
55082;SDS011;40978;52.850;6.506;2022-12-18T05:35:54;50.38;;;25.33;;
55082;SDS011;40978;52.850;6.506;2022-12-18T05:38:21;48.33;;;25.23;;
55082;SDS011;40978;52.850;6.506;2022-12-18T05:40:48;47.60;;;24.65;;
55082;SDS011;40978;52.850;6.506;2022-12-18T05:43:15;51.83;;;25.77;;
55082;SDS011;40978;52.850;6.506;2022-12-18T05:45:41;54.28;;;25.27;;
55082;SDS011;40978;52.850;6.506;2022-12-18T05:48:07;50.03;;;24.35;;
55082;SDS011;40978;52.850;6.506;2022-12-18T05:50:37;49.08;;;24.55;;
55082;SDS011;40978;52.850;6.506;2022-12-18T05:53:04;47.20;;;23.73;;
55082;SDS011;40978;52.850;6.506;2022-12-18T05:55:36;51.70;;;23.60;;
55082;SDS011;40978;52.850;6.506;2022-12-18T05:58:04;49.92;;;23.50;;
55082;SDS011;40978;52.850;6.506;2022-12-18T06:00:32;49.10;;;23.83;;
55082;SDS011;40978;52.850;6.506;2022-12-18T06:02:59;43.83;;;23.77;;
55082;SDS011;40978;52.850;6.506;2022-12-18T06:05:25;50.42;;;25.63;;
55082;SDS011;40978;52.850;6.506;2022-12-18T06:07:51;45.67;;;24.10;;
55082;SDS011;40978;52.850;6.506;2022-12-18T06:10:17;47.90;;;25.00;;
55082;SDS011;40978;52.850;6.506;2022-12-18T06:12:43;50.38;;;24.27;;
55082;SDS011;40978;52.850;6.506;2022-12-18T06:15:09;46.08;;;23.05;;
55082;SDS011;40978;52.850;6.506;2022-12-18T06:17:35;45.17;;;24.48;;
55082;SDS011;40978;52.850;6.506;2022-12-18T06:20:00;37.75;;;21.95;;
55082;SDS011;40978;52.850;6.506;2022-12-18T06:22:26;42.80;;;23.10;;
55082;SDS011;40978;52.850;6.506;2022-12-18T06:24:52;46.03;;;21.90;;
55082;SDS011;40978;52.850;6.506;2022-12-18T06:27:18;41.90;;;23.02;;
55082;SDS011;40978;52.850;6.506;2022-12-18T06:29:44;44.78;;;22.17;;
55082;SDS011;40978;52.850;6.506;2022-12-18T06:32:10;41.08;;;21.60;;
55082;SDS011;40978;52.850;6.506;2022-12-18T06:34:39;42.22;;;22.40;;
55082;SDS011;40978;52.850;6.506;2022-12-18T06:37:05;45.78;;;23.25;;
55082;SDS011;40978;52.850;6.506;2022-12-18T06:39:31;44.08;;;21.85;;
55082;SDS011;40978;52.850;6.506;2022-12-18T06:41:57;38.35;;;21.98;;
55082;SDS011;40978;52.850;6.506;2022-12-18T06:44:22;45.15;;;22.92;;
55082;SDS011;40978;52.850;6.506;2022-12-18T06:46:48;41.38;;;22.38;;
55082;SDS011;40978;52.850;6.506;2022-12-18T06:49:14;42.47;;;22.70;;
55082;SDS011;40978;52.850;6.506;2022-12-18T06:51:41;40.53;;;22.20;;
55082;SDS011;40978;52.850;6.506;2022-12-18T06:54:06;40.50;;;21.63;;
55082;SDS011;40978;52.850;6.506;2022-12-18T06:56:32;39.92;;;21.70;;
55082;SDS011;40978;52.850;6.506;2022-12-18T06:58:58;40.17;;;21.00;;
55082;SDS011;40978;52.850;6.506;2022-12-18T07:01:23;40.22;;;21.38;;
55082;SDS011;40978;52.850;6.506;2022-12-18T07:03:53;44.90;;;21.20;;
55082;SDS011;40978;52.850;6.506;2022-12-18T07:06:20;39.78;;;20.25;;
55082;SDS011;40978;52.850;6.506;2022-12-18T07:08:47;36.05;;;21.17;;
55082;SDS011;40978;52.850;6.506;2022-12-18T07:11:14;38.78;;;21.17;;
55082;SDS011;40978;52.850;6.506;2022-12-18T07:13:40;40.05;;;20.92;;
55082;SDS011;40978;52.850;6.506;2022-12-18T07:16:14;38.03;;;20.55;;
55082;SDS011;40978;52.850;6.506;2022-12-18T07:18:41;39.60;;;21.08;;
55082;SDS011;40978;52.850;6.506;2022-12-18T07:21:08;38.20;;;20.35;;
55082;SDS011;40978;52.850;6.506;2022-12-18T07:23:35;41.03;;;20.85;;
55082;SDS011;40978;52.850;6.506;2022-12-18T07:26:04;43.47;;;23.75;;
55082;SDS011;40978;52.850;6.506;2022-12-18T07:28:32;45.47;;;22.80;;
55082;SDS011;40978;52.850;6.506;2022-12-18T07:31:03;40.83;;;21.00;;
55082;SDS011;40978;52.850;6.506;2022-12-18T07:33:29;40.25;;;22.67;;
55082;SDS011;40978;52.850;6.506;2022-12-18T07:35:55;43.22;;;21.55;;
55082;SDS011;40978;52.850;6.506;2022-12-18T07:38:21;46.45;;;23.92;;
55082;SDS011;40978;52.850;6.506;2022-12-18T07:40:47;40.25;;;22.15;;
55082;SDS011;40978;52.850;6.506;2022-12-18T07:43:12;46.42;;;23.80;;
55082;SDS011;40978;52.850;6.506;2022-12-18T07:45:38;43.63;;;21.98;;
55082;SDS011;40978;52.850;6.506;2022-12-18T07:48:04;40.28;;;23.60;;
55082;SDS011;40978;52.850;6.506;2022-12-18T07:50:30;37.45;;;21.02;;
55082;SDS011;40978;52.850;6.506;2022-12-18T07:52:55;40.88;;;21.55;;
55082;SDS011;40978;52.850;6.506;2022-12-18T07:55:24;37.95;;;20.95;;
55082;SDS011;40978;52.850;6.506;2022-12-18T07:57:49;43.85;;;23.10;;
55082;SDS011;40978;52.850;6.506;2022-12-18T08:00:15;38.70;;;20.90;;
55082;SDS011;40978;52.850;6.506;2022-12-18T08:02:41;36.22;;;20.88;;
55082;SDS011;40978;52.850;6.506;2022-12-18T08:05:07;39.22;;;20.88;;
55082;SDS011;40978;52.850;6.506;2022-12-18T08:07:33;36.20;;;21.23;;
55082;SDS011;40978;52.850;6.506;2022-12-18T08:09:59;38.42;;;22.25;;
55082;SDS011;40978;52.850;6.506;2022-12-18T08:12:24;40.83;;;21.38;;
55082;SDS011;40978;52.850;6.506;2022-12-18T08:14:50;41.63;;;23.05;;
55082;SDS011;40978;52.850;6.506;2022-12-18T08:17:16;38.90;;;20.48;;
55082;SDS011;40978;52.850;6.506;2022-12-18T08:19:41;35.13;;;19.65;;
55082;SDS011;40978;52.850;6.506;2022-12-18T08:22:07;36.65;;;20.92;;
55082;SDS011;40978;52.850;6.506;2022-12-18T08:24:33;34.40;;;20.05;;
55082;SDS011;40978;52.850;6.506;2022-12-18T08:26:58;35.70;;;19.75;;
55082;SDS011;40978;52.850;6.506;2022-12-18T08:29:24;35.10;;;20.15;;
55082;SDS011;40978;52.850;6.506;2022-12-18T08:31:50;30.65;;;18.50;;
55082;SDS011;40978;52.850;6.506;2022-12-18T08:34:16;32.65;;;18.15;;
55082;SDS011;40978;52.850;6.506;2022-12-18T08:36:41;41.42;;;20.45;;
55082;SDS011;40978;52.850;6.506;2022-12-18T08:39:07;31.50;;;18.83;;
55082;SDS011;40978;52.850;6.506;2022-12-18T08:41:33;33.08;;;19.23;;
55082;SDS011;40978;52.850;6.506;2022-12-18T08:43:58;32.08;;;17.42;;
55082;SDS011;40978;52.850;6.506;2022-12-18T08:46:43;32.67;;;18.20;;
55082;SDS011;40978;52.850;6.506;2022-12-18T08:49:09;30.88;;;18.20;;
55082;SDS011;40978;52.850;6.506;2022-12-18T08:51:36;27.63;;;17.50;;
55082;SDS011;40978;52.850;6.506;2022-12-18T08:54:03;33.22;;;19.70;;
55082;SDS011;40978;52.850;6.506;2022-12-18T08:56:29;32.65;;;18.95;;
55082;SDS011;40978;52.850;6.506;2022-12-18T08:58:55;29.65;;;18.77;;
55082;SDS011;40978;52.850;6.506;2022-12-18T09:01:21;32.88;;;18.67;;
55082;SDS011;40978;52.850;6.506;2022-12-18T09:03:48;26.40;;;17.40;;
55082;SDS011;40978;52.850;6.506;2022-12-18T09:06:16;26.25;;;16.60;;
55082;SDS011;40978;52.850;6.506;2022-12-18T09:08:43;25.42;;;16.52;;
55082;SDS011;40978;52.850;6.506;2022-12-18T09:11:13;30.83;;;17.30;;
55082;SDS011;40978;52.850;6.506;2022-12-18T09:13:44;33.55;;;17.85;;
55082;SDS011;40978;52.850;6.506;2022-12-18T09:16:09;22.75;;;15.85;;
55082;SDS011;40978;52.850;6.506;2022-12-18T09:18:35;25.38;;;16.90;;
55082;SDS011;40978;52.850;6.506;2022-12-18T09:21:07;24.60;;;15.40;;
55082;SDS011;40978;52.850;6.506;2022-12-18T09:23:34;28.05;;;16.75;;
55082;SDS011;40978;52.850;6.506;2022-12-18T09:25:59;24.42;;;15.00;;
55082;SDS011;40978;52.850;6.506;2022-12-18T09:28:25;26.05;;;15.00;;
55082;SDS011;40978;52.850;6.506;2022-12-18T09:30:52;23.58;;;15.43;;
55082;SDS011;40978;52.850;6.506;2022-12-18T09:33:18;26.48;;;15.80;;
55082;SDS011;40978;52.850;6.506;2022-12-18T09:35:44;22.40;;;15.52;;
55082;SDS011;40978;52.850;6.506;2022-12-18T09:38:11;21.55;;;14.40;;
55082;SDS011;40978;52.850;6.506;2022-12-18T09:40:45;22.73;;;13.70;;
55082;SDS011;40978;52.850;6.506;2022-12-18T09:43:22;22.75;;;13.38;;
55082;SDS011;40978;52.850;6.506;2022-12-18T09:45:55;18.35;;;11.88;;
55082;SDS011;40978;52.850;6.506;2022-12-18T09:48:27;22.05;;;13.05;;
55082;SDS011;40978;52.850;6.506;2022-12-18T09:51:37;19.45;;;12.50;;
55082;SDS011;40978;52.850;6.506;2022-12-18T09:53:59;18.52;;;11.88;;
55082;SDS011;40978;52.850;6.506;2022-12-18T09:56:31;17.42;;;11.63;;
55082;SDS011;40978;52.850;6.506;2022-12-18T09:59:18;19.50;;;12.52;;
55082;SDS011;40978;52.850;6.506;2022-12-18T10:01:45;20.60;;;12.65;;
55082;SDS011;40978;52.850;6.506;2022-12-18T10:04:11;17.60;;;12.15;;
55082;SDS011;40978;52.850;6.506;2022-12-18T10:06:46;19.40;;;11.80;;
55082;SDS011;40978;52.850;6.506;2022-12-18T10:14:36;19.67;;;11.75;;
55082;SDS011;40978;52.850;6.506;2022-12-18T10:17:58;15.95;;;10.73;;
55082;SDS011;40978;52.850;6.506;2022-12-18T10:20:25;15.43;;;10.40;;
55082;SDS011;40978;52.850;6.506;2022-12-18T10:26:01;16.70;;;10.48;;
55082;SDS011;40978;52.850;6.506;2022-12-18T10:28:33;15.93;;;9.85;;
55082;SDS011;40978;52.850;6.506;2022-12-18T10:31:01;15.50;;;10.10;;
55082;SDS011;40978;52.850;6.506;2022-12-18T10:33:28;16.63;;;10.65;;
55082;SDS011;40978;52.850;6.506;2022-12-18T10:35:55;15.00;;;10.27;;
55082;SDS011;40978;52.850;6.506;2022-12-18T10:38:22;14.90;;;10.35;;
55082;SDS011;40978;52.850;6.506;2022-12-18T10:41:03;14.75;;;10.15;;
55082;SDS011;40978;52.850;6.506;2022-12-18T10:43:32;11.90;;;8.82;;
55082;SDS011;40978;52.850;6.506;2022-12-18T10:48:28;13.43;;;9.55;;
55082;SDS011;40978;52.850;6.506;2022-12-18T10:50:55;13.43;;;8.57;;
55082;SDS011;40978;52.850;6.506;2022-12-18T10:53:23;13.95;;;8.82;;
55082;SDS011;40978;52.850;6.506;2022-12-18T10:55:52;12.73;;;8.32;;
55082;SDS011;40978;52.850;6.506;2022-12-18T10:58:33;12.50;;;8.52;;
55082;SDS011;40978;52.850;6.506;2022-12-18T11:01:02;12.23;;;7.90;;
55082;SDS011;40978;52.850;6.506;2022-12-18T11:06:21;11.30;;;7.47;;
55082;SDS011;40978;52.850;6.506;2022-12-18T11:09:05;12.32;;;7.22;;
55082;SDS011;40978;52.850;6.506;2022-12-18T11:11:51;11.38;;;7.28;;
55082;SDS011;40978;52.850;6.506;2022-12-18T11:16:53;12.57;;;7.82;;
55082;SDS011;40978;52.850;6.506;2022-12-18T11:19:33;10.52;;;6.88;;
55082;SDS011;40978;52.850;6.506;2022-12-18T11:22:01;11.23;;;6.85;;
55082;SDS011;40978;52.850;6.506;2022-12-18T11:24:51;12.05;;;6.82;;
55082;SDS011;40978;52.850;6.506;2022-12-18T11:27:28;9.98;;;6.57;;
55082;SDS011;40978;52.850;6.506;2022-12-18T11:30:40;10.32;;;6.63;;
55082;SDS011;40978;52.850;6.506;2022-12-18T11:32:42;9.88;;;6.15;;
55082;SDS011;40978;52.850;6.506;2022-12-18T11:35:14;8.02;;;5.78;;
55082;SDS011;40978;52.850;6.506;2022-12-18T11:37:49;8.45;;;6.05;;
55082;SDS011;40978;52.850;6.506;2022-12-18T11:40:25;8.02;;;5.45;;
55082;SDS011;40978;52.850;6.506;2022-12-18T11:42:59;8.25;;;5.72;;
55082;SDS011;40978;52.850;6.506;2022-12-18T11:45:33;8.50;;;5.90;;
55082;SDS011;40978;52.850;6.506;2022-12-18T11:48:03;7.03;;;4.93;;
55082;SDS011;40978;52.850;6.506;2022-12-18T11:50:52;8.25;;;5.03;;
55082;SDS011;40978;52.850;6.506;2022-12-18T11:53:20;9.40;;;5.10;;
55082;SDS011;40978;52.850;6.506;2022-12-18T11:56:11;9.02;;;4.68;;
55082;SDS011;40978;52.850;6.506;2022-12-18T12:09:52;7.07;;;4.35;;
55082;SDS011;40978;52.850;6.506;2022-12-18T12:12:45;6.43;;;4.32;;
55082;SDS011;40978;52.850;6.506;2022-12-18T12:15:28;7.10;;;4.78;;
55082;SDS011;40978;52.850;6.506;2022-12-18T12:18:01;7.72;;;4.80;;
55082;SDS011;40978;52.850;6.506;2022-12-18T12:20:51;7.63;;;4.35;;
55082;SDS011;40978;52.850;6.506;2022-12-18T12:23:35;8.38;;;4.40;;
55082;SDS011;40978;52.850;6.506;2022-12-18T12:26:18;8.40;;;4.93;;
55082;SDS011;40978;52.850;6.506;2022-12-18T12:28:59;9.43;;;5.40;;
55082;SDS011;40978;52.850;6.506;2022-12-18T12:31:46;7.43;;;5.10;;
55082;SDS011;40978;52.850;6.506;2022-12-18T12:34:27;7.07;;;5.00;;
55082;SDS011;40978;52.850;6.506;2022-12-18T12:37:11;7.45;;;4.75;;
55082;SDS011;40978;52.850;6.506;2022-12-18T12:40:12;6.43;;;4.47;;
55082;SDS011;40978;52.850;6.506;2022-12-18T12:42:43;6.75;;;4.50;;
55082;SDS011;40978;52.850;6.506;2022-12-18T12:45:40;9.35;;;5.25;;
55082;SDS011;40978;52.850;6.506;2022-12-18T12:48:36;6.60;;;4.60;;
55082;SDS011;40978;52.850;6.506;2022-12-18T12:51:06;7.70;;;4.88;;
55082;SDS011;40978;52.850;6.506;2022-12-18T12:53:37;7.55;;;4.68;;
55082;SDS011;40978;52.850;6.506;2022-12-18T12:56:04;7.63;;;5.72;;
55082;SDS011;40978;52.850;6.506;2022-12-18T12:58:45;7.68;;;4.80;;
55082;SDS011;40978;52.850;6.506;2022-12-18T13:09:33;7.63;;;4.80;;
55082;SDS011;40978;52.850;6.506;2022-12-18T13:12:25;8.10;;;4.80;;
55082;SDS011;40978;52.850;6.506;2022-12-18T13:15:25;7.78;;;5.28;;
55082;SDS011;40978;52.850;6.506;2022-12-18T13:18:23;8.40;;;5.63;;
55082;SDS011;40978;52.850;6.506;2022-12-18T13:21:00;7.78;;;4.38;;
55082;SDS011;40978;52.850;6.506;2022-12-18T13:23:34;8.02;;;5.22;;
55082;SDS011;40978;52.850;6.506;2022-12-18T13:30:59;7.82;;;5.38;;
55082;SDS011;40978;52.850;6.506;2022-12-18T13:36:01;6.88;;;5.00;;
55082;SDS011;40978;52.850;6.506;2022-12-18T13:39:08;6.93;;;5.40;;
55082;SDS011;40978;52.850;6.506;2022-12-18T13:41:47;7.53;;;5.50;;
55082;SDS011;40978;52.850;6.506;2022-12-18T13:44:59;7.85;;;5.30;;
55082;SDS011;40978;52.850;6.506;2022-12-18T13:47:34;7.07;;;4.82;;
55082;SDS011;40978;52.850;6.506;2022-12-18T13:50:20;9.55;;;5.53;;
55082;SDS011;40978;52.850;6.506;2022-12-18T13:52:48;8.38;;;5.88;;
55082;SDS011;40978;52.850;6.506;2022-12-18T13:55:17;7.60;;;5.63;;
55082;SDS011;40978;52.850;6.506;2022-12-18T13:57:45;7.78;;;5.43;;
55082;SDS011;40978;52.850;6.506;2022-12-18T14:02:48;7.13;;;5.00;;
55082;SDS011;40978;52.850;6.506;2022-12-18T14:05:31;7.20;;;5.18;;
55082;SDS011;40978;52.850;6.506;2022-12-18T14:08:07;6.63;;;4.72;;
55082;SDS011;40978;52.850;6.506;2022-12-18T14:10:35;8.60;;;5.63;;
55082;SDS011;40978;52.850;6.506;2022-12-18T14:13:10;7.88;;;5.47;;
55082;SDS011;40978;52.850;6.506;2022-12-18T14:15:44;6.85;;;4.65;;
55082;SDS011;40978;52.850;6.506;2022-12-18T14:20:47;7.47;;;5.13;;
55082;SDS011;40978;52.850;6.506;2022-12-18T14:23:28;10.50;;;5.82;;
55082;SDS011;40978;52.850;6.506;2022-12-18T14:26:17;8.13;;;4.95;;
55082;SDS011;40978;52.850;6.506;2022-12-18T14:31:20;7.60;;;4.88;;
55082;SDS011;40978;52.850;6.506;2022-12-18T14:33:47;7.40;;;4.75;;
55082;SDS011;40978;52.850;6.506;2022-12-18T14:36:17;8.20;;;4.57;;
55082;SDS011;40978;52.850;6.506;2022-12-18T14:38:49;7.97;;;5.13;;
55082;SDS011;40978;52.850;6.506;2022-12-18T14:41:16;7.60;;;5.15;;
55082;SDS011;40978;52.850;6.506;2022-12-18T14:43:45;8.15;;;5.80;;
55082;SDS011;40978;52.850;6.506;2022-12-18T14:48:58;8.20;;;5.70;;
55082;SDS011;40978;52.850;6.506;2022-12-18T14:51:26;10.20;;;6.10;;
55082;SDS011;40978;52.850;6.506;2022-12-18T14:53:54;9.45;;;6.18;;
55082;SDS011;40978;52.850;6.506;2022-12-18T14:56:27;10.40;;;6.85;;
55082;SDS011;40978;52.850;6.506;2022-12-18T14:58:59;9.77;;;6.97;;
55082;SDS011;40978;52.850;6.506;2022-12-18T15:01:31;9.38;;;6.72;;
55082;SDS011;40978;52.850;6.506;2022-12-18T15:04:25;9.77;;;6.72;;
55082;SDS011;40978;52.850;6.506;2022-12-18T15:07:02;9.95;;;6.60;;
55082;SDS011;40978;52.850;6.506;2022-12-18T15:09:35;11.77;;;6.95;;
55082;SDS011;40978;52.850;6.506;2022-12-18T15:12:01;11.35;;;7.35;;
55082;SDS011;40978;52.850;6.506;2022-12-18T15:16:58;11.15;;;7.07;;
55082;SDS011;40978;52.850;6.506;2022-12-18T15:19:28;9.77;;;7.10;;
55082;SDS011;40978;52.850;6.506;2022-12-18T15:22:18;10.65;;;7.50;;
55082;SDS011;40978;52.850;6.506;2022-12-18T15:24:46;11.38;;;7.28;;
55082;SDS011;40978;52.850;6.506;2022-12-18T15:32:49;12.95;;;7.85;;
55082;SDS011;40978;52.850;6.506;2022-12-18T15:37:46;10.35;;;7.63;;
55082;SDS011;40978;52.850;6.506;2022-12-18T15:40:13;11.52;;;7.38;;
55082;SDS011;40978;52.850;6.506;2022-12-18T15:42:41;11.88;;;8.07;;
55082;SDS011;40978;52.850;6.506;2022-12-18T15:45:26;11.27;;;8.48;;
55082;SDS011;40978;52.850;6.506;2022-12-18T15:47:52;12.18;;;8.30;;
55082;SDS011;40978;52.850;6.506;2022-12-18T15:50:18;14.23;;;9.15;;
55082;SDS011;40978;52.850;6.506;2022-12-18T15:52:45;12.60;;;8.48;;
55082;SDS011;40978;52.850;6.506;2022-12-18T15:55:22;13.85;;;9.10;;
55082;SDS011;40978;52.850;6.506;2022-12-18T15:58:08;13.65;;;8.48;;
55082;SDS011;40978;52.850;6.506;2022-12-18T16:00:35;13.48;;;9.40;;
55082;SDS011;40978;52.850;6.506;2022-12-18T16:03:03;15.90;;;9.60;;
55082;SDS011;40978;52.850;6.506;2022-12-18T16:05:29;15.10;;;9.27;;
55082;SDS011;40978;52.850;6.506;2022-12-18T16:07:56;11.43;;;8.65;;
55082;SDS011;40978;52.850;6.506;2022-12-18T16:10:22;13.45;;;9.23;;
55082;SDS011;40978;52.850;6.506;2022-12-18T16:12:49;12.23;;;8.68;;
55082;SDS011;40978;52.850;6.506;2022-12-18T16:15:15;12.88;;;8.45;;
55082;SDS011;40978;52.850;6.506;2022-12-18T16:17:41;12.50;;;8.32;;
55082;SDS011;40978;52.850;6.506;2022-12-18T16:20:12;14.43;;;8.55;;
55082;SDS011;40978;52.850;6.506;2022-12-18T16:22:40;11.00;;;8.63;;
55082;SDS011;40978;52.850;6.506;2022-12-18T16:25:08;12.02;;;9.15;;
55082;SDS011;40978;52.850;6.506;2022-12-18T16:27:42;12.50;;;9.55;;
55082;SDS011;40978;52.850;6.506;2022-12-18T16:30:12;14.95;;;10.23;;